sensor_id;sensor_type;location;lat;lon;timestamp;temperature;humidity
1592;DHT22;789;51.612;7.510;2023-04-06T00:00:14;6.40;1.00
1592;DHT22;789;51.612;7.510;2023-04-06T00:02:41;6.30;1.00
1592;DHT22;789;51.612;7.510;2023-04-06T00:05:08;6.30;1.00
1592;DHT22;789;51.612;7.510;2023-04-06T00:07:35;6.30;1.00
1592;DHT22;789;51.612;7.510;2023-04-06T00:10:03;6.20;1.00
1592;DHT22;789;51.612;7.510;2023-04-06T00:12:30;6.10;1.00
1592;DHT22;789;51.612;7.510;2023-04-06T00:14:58;6.10;1.00
1592;DHT22;789;51.612;7.510;2023-04-06T00:17:26;6.00;1.00
1592;DHT22;789;51.612;7.510;2023-04-06T00:19:53;6.00;1.00
1592;DHT22;789;51.612;7.510;2023-04-06T00:22:20;6.00;1.00
1592;DHT22;789;51.612;7.510;2023-04-06T00:24:47;6.00;1.00
1592;DHT22;789;51.612;7.510;2023-04-06T00:27:14;6.00;1.00
1592;DHT22;789;51.612;7.510;2023-04-06T00:29:41;5.90;1.00
1592;DHT22;789;51.612;7.510;2023-04-06T00:32:09;5.90;1.00
1592;DHT22;789;51.612;7.510;2023-04-06T00:34:36;5.90;1.00
1592;DHT22;789;51.612;7.510;2023-04-06T00:37:02;5.80;1.00
1592;DHT22;789;51.612;7.510;2023-04-06T00:39:29;5.80;1.00
1592;DHT22;789;51.612;7.510;2023-04-06T00:41:56;5.80;1.00
1592;DHT22;789;51.612;7.510;2023-04-06T00:44:23;5.80;1.00
1592;DHT22;789;51.612;7.510;2023-04-06T00:46:50;5.70;1.00
1592;DHT22;789;51.612;7.510;2023-04-06T00:49:18;5.60;1.00
1592;DHT22;789;51.612;7.510;2023-04-06T00:51:45;5.50;1.00
1592;DHT22;789;51.612;7.510;2023-04-06T00:54:12;5.50;1.00
1592;DHT22;789;51.612;7.510;2023-04-06T00:56:39;5.50;1.00
1592;DHT22;789;51.612;7.510;2023-04-06T00:59:07;5.50;1.00
1592;DHT22;789;51.612;7.510;2023-04-06T01:01:34;5.40;1.00
1592;DHT22;789;51.612;7.510;2023-04-06T01:04:01;5.50;1.00
1592;DHT22;789;51.612;7.510;2023-04-06T01:06:30;5.50;1.00
1592;DHT22;789;51.612;7.510;2023-04-06T01:08:57;5.50;1.00
1592;DHT22;789;51.612;7.510;2023-04-06T01:11:24;5.50;1.00
1592;DHT22;789;51.612;7.510;2023-04-06T01:13:51;5.50;1.00
1592;DHT22;789;51.612;7.510;2023-04-06T01:16:18;5.50;1.00
1592;DHT22;789;51.612;7.510;2023-04-06T01:18:45;5.50;1.00
1592;DHT22;789;51.612;7.510;2023-04-06T01:21:12;5.50;1.00
1592;DHT22;789;51.612;7.510;2023-04-06T01:23:43;5.40;1.00
1592;DHT22;789;51.612;7.510;2023-04-06T01:26:11;5.40;1.00
1592;DHT22;789;51.612;7.510;2023-04-06T01:28:38;5.40;1.00
1592;DHT22;789;51.612;7.510;2023-04-06T01:31:06;5.40;1.00
1592;DHT22;789;51.612;7.510;2023-04-06T01:33:34;5.40;1.00
1592;DHT22;789;51.612;7.510;2023-04-06T01:36:00;5.40;1.00
1592;DHT22;789;51.612;7.510;2023-04-06T01:38:27;5.40;1.00
1592;DHT22;789;51.612;7.510;2023-04-06T01:40:55;5.30;1.00
1592;DHT22;789;51.612;7.510;2023-04-06T01:43:22;5.30;1.00
1592;DHT22;789;51.612;7.510;2023-04-06T01:45:49;5.30;1.00
1592;DHT22;789;51.612;7.510;2023-04-06T01:48:16;5.30;1.00
1592;DHT22;789;51.612;7.510;2023-04-06T01:50:43;5.30;1.00
1592;DHT22;789;51.612;7.510;2023-04-06T01:53:10;5.30;1.00
1592;DHT22;789;51.612;7.510;2023-04-06T01:55:37;5.20;1.00
1592;DHT22;789;51.612;7.510;2023-04-06T01:58:05;5.20;1.00
1592;DHT22;789;51.612;7.510;2023-04-06T02:00:32;5.10;1.00
1592;DHT22;789;51.612;7.510;2023-04-06T02:02:58;5.10;1.00
1592;DHT22;789;51.612;7.510;2023-04-06T02:05:25;5.10;1.00
1592;DHT22;789;51.612;7.510;2023-04-06T02:07:52;5.10;1.00
1592;DHT22;789;51.612;7.510;2023-04-06T02:10:19;5.10;1.00
1592;DHT22;789;51.612;7.510;2023-04-06T02:12:45;5.00;1.00
1592;DHT22;789;51.612;7.510;2023-04-06T02:15:14;5.00;1.00
1592;DHT22;789;51.612;7.510;2023-04-06T02:17:41;5.00;1.00
1592;DHT22;789;51.612;7.510;2023-04-06T02:20:08;5.00;1.00
1592;DHT22;789;51.612;7.510;2023-04-06T02:22:35;5.00;1.00
1592;DHT22;789;51.612;7.510;2023-04-06T02:25:02;5.00;1.00
1592;DHT22;789;51.612;7.510;2023-04-06T02:27:29;5.00;1.00
1592;DHT22;789;51.612;7.510;2023-04-06T02:29:56;5.00;1.00
1592;DHT22;789;51.612;7.510;2023-04-06T02:32:24;5.00;1.00
1592;DHT22;789;51.612;7.510;2023-04-06T02:34:51;4.90;1.00
1592;DHT22;789;51.612;7.510;2023-04-06T02:37:17;4.90;1.00
1592;DHT22;789;51.612;7.510;2023-04-06T02:39:45;4.90;1.00
1592;DHT22;789;51.612;7.510;2023-04-06T02:42:12;4.90;1.00
1592;DHT22;789;51.612;7.510;2023-04-06T02:44:40;4.80;1.00
1592;DHT22;789;51.612;7.510;2023-04-06T02:47:07;4.80;1.00
1592;DHT22;789;51.612;7.510;2023-04-06T02:49:35;4.70;1.00
1592;DHT22;789;51.612;7.510;2023-04-06T02:52:02;4.70;1.00
1592;DHT22;789;51.612;7.510;2023-04-06T02:54:29;4.60;1.00
1592;DHT22;789;51.612;7.510;2023-04-06T02:56:55;4.60;1.00
1592;DHT22;789;51.612;7.510;2023-04-06T02:59:22;4.60;1.00
1592;DHT22;789;51.612;7.510;2023-04-06T03:01:51;4.50;1.00
1592;DHT22;789;51.612;7.510;2023-04-06T03:04:17;4.50;1.00
1592;DHT22;789;51.612;7.510;2023-04-06T03:06:46;4.50;1.00
1592;DHT22;789;51.612;7.510;2023-04-06T03:09:12;4.40;1.00
1592;DHT22;789;51.612;7.510;2023-04-06T03:11:39;4.40;1.00
1592;DHT22;789;51.612;7.510;2023-04-06T03:14:06;4.40;1.00
1592;DHT22;789;51.612;7.510;2023-04-06T03:16:33;4.40;1.00
1592;DHT22;789;51.612;7.510;2023-04-06T03:18:59;4.30;1.00
1592;DHT22;789;51.612;7.510;2023-04-06T03:21:26;4.30;1.00
1592;DHT22;789;51.612;7.510;2023-04-06T03:23:54;4.30;1.00
1592;DHT22;789;51.612;7.510;2023-04-06T03:26:21;4.30;1.00
1592;DHT22;789;51.612;7.510;2023-04-06T03:28:48;4.30;1.00
1592;DHT22;789;51.612;7.510;2023-04-06T03:31:14;4.30;1.00
1592;DHT22;789;51.612;7.510;2023-04-06T03:33:41;4.30;1.00
1592;DHT22;789;51.612;7.510;2023-04-06T03:36:08;4.30;1.00
1592;DHT22;789;51.612;7.510;2023-04-06T03:38:35;4.30;1.00
1592;DHT22;789;51.612;7.510;2023-04-06T03:41:03;4.30;1.00
1592;DHT22;789;51.612;7.510;2023-04-06T03:43:30;4.30;1.00
1592;DHT22;789;51.612;7.510;2023-04-06T03:45:56;4.20;1.00
1592;DHT22;789;51.612;7.510;2023-04-06T03:48:23;4.20;1.00
1592;DHT22;789;51.612;7.510;2023-04-06T03:50:50;4.20;1.00
1592;DHT22;789;51.612;7.510;2023-04-06T03:53:16;4.20;1.00
1592;DHT22;789;51.612;7.510;2023-04-06T03:55:43;4.20;1.00
1592;DHT22;789;51.612;7.510;2023-04-06T03:58:11;4.20;1.00
1592;DHT22;789;51.612;7.510;2023-04-06T04:00:38;4.20;1.00
1592;DHT22;789;51.612;7.510;2023-04-06T04:03:07;4.10;1.00
1592;DHT22;789;51.612;7.510;2023-04-06T04:05:33;4.10;1.00
1592;DHT22;789;51.612;7.510;2023-04-06T04:08:00;4.10;1.00
1592;DHT22;789;51.612;7.510;2023-04-06T04:10:27;4.10;1.00
1592;DHT22;789;51.612;7.510;2023-04-06T04:12:54;4.10;1.00
1592;DHT22;789;51.612;7.510;2023-04-06T04:15:22;4.10;1.00
1592;DHT22;789;51.612;7.510;2023-04-06T04:17:49;4.00;1.00
1592;DHT22;789;51.612;7.510;2023-04-06T04:20:16;4.00;1.00
1592;DHT22;789;51.612;7.510;2023-04-06T04:22:43;4.00;1.00
1592;DHT22;789;51.612;7.510;2023-04-06T04:25:10;4.00;1.00
1592;DHT22;789;51.612;7.510;2023-04-06T04:27:36;4.00;1.00
1592;DHT22;789;51.612;7.510;2023-04-06T04:30:04;4.00;1.00
1592;DHT22;789;51.612;7.510;2023-04-06T04:32:36;4.00;1.00
1592;DHT22;789;51.612;7.510;2023-04-06T04:35:03;4.00;1.00
1592;DHT22;789;51.612;7.510;2023-04-06T04:37:30;4.00;1.00
1592;DHT22;789;51.612;7.510;2023-04-06T04:39:57;3.90;1.00
1592;DHT22;789;51.612;7.510;2023-04-06T04:42:23;3.90;1.00
1592;DHT22;789;51.612;7.510;2023-04-06T04:44:50;3.90;1.00
1592;DHT22;789;51.612;7.510;2023-04-06T04:47:17;3.90;1.00
1592;DHT22;789;51.612;7.510;2023-04-06T04:49:45;3.90;1.00
1592;DHT22;789;51.612;7.510;2023-04-06T04:52:12;3.90;1.00
1592;DHT22;789;51.612;7.510;2023-04-06T04:54:38;3.90;1.00
1592;DHT22;789;51.612;7.510;2023-04-06T04:57:06;3.90;1.00
1592;DHT22;789;51.612;7.510;2023-04-06T04:59:33;3.90;1.00
1592;DHT22;789;51.612;7.510;2023-04-06T05:02:00;3.90;1.00
1592;DHT22;789;51.612;7.510;2023-04-06T05:04:27;3.90;1.00
1592;DHT22;789;51.612;7.510;2023-04-06T05:09:30;3.90;1.00
1592;DHT22;789;51.612;7.510;2023-04-06T05:11:57;3.90;1.00
1592;DHT22;789;51.612;7.510;2023-04-06T05:14:24;3.90;1.00
1592;DHT22;789;51.612;7.510;2023-04-06T05:16:51;3.90;1.00
1592;DHT22;789;51.612;7.510;2023-04-06T05:19:18;3.90;1.00
1592;DHT22;789;51.612;7.510;2023-04-06T05:21:45;3.90;1.00
1592;DHT22;789;51.612;7.510;2023-04-06T05:24:13;4.00;1.00
1592;DHT22;789;51.612;7.510;2023-04-06T05:26:39;4.00;1.00
1592;DHT22;789;51.612;7.510;2023-04-06T05:29:07;4.00;1.00
1592;DHT22;789;51.612;7.510;2023-04-06T05:31:33;4.10;1.00
1592;DHT22;789;51.612;7.510;2023-04-06T05:34:00;4.10;1.00
1592;DHT22;789;51.612;7.510;2023-04-06T05:36:27;4.20;1.00
1592;DHT22;789;51.612;7.510;2023-04-06T05:38:54;4.20;1.00
1592;DHT22;789;51.612;7.510;2023-04-06T05:41:23;4.20;1.00
1592;DHT22;789;51.612;7.510;2023-04-06T05:43:50;4.30;1.00
1592;DHT22;789;51.612;7.510;2023-04-06T05:46:16;4.40;1.00
1592;DHT22;789;51.612;7.510;2023-04-06T05:48:43;4.40;1.00
1592;DHT22;789;51.612;7.510;2023-04-06T05:51:11;4.50;1.00
1592;DHT22;789;51.612;7.510;2023-04-06T05:53:38;4.60;1.00
1592;DHT22;789;51.612;7.510;2023-04-06T05:56:05;4.70;1.00
1592;DHT22;789;51.612;7.510;2023-04-06T05:58:34;4.80;1.00
1592;DHT22;789;51.612;7.510;2023-04-06T06:01:01;4.90;1.00
1592;DHT22;789;51.612;7.510;2023-04-06T06:03:28;5.10;1.00
1592;DHT22;789;51.612;7.510;2023-04-06T06:05:59;5.30;1.00
1592;DHT22;789;51.612;7.510;2023-04-06T06:08:30;5.50;1.00
1592;DHT22;789;51.612;7.510;2023-04-06T06:10:56;5.70;1.00
1592;DHT22;789;51.612;7.510;2023-04-06T06:13:24;5.90;1.00
1592;DHT22;789;51.612;7.510;2023-04-06T06:15:52;6.20;1.00
1592;DHT22;789;51.612;7.510;2023-04-06T06:18:18;6.40;1.00
1592;DHT22;789;51.612;7.510;2023-04-06T06:20:45;6.60;1.00
1592;DHT22;789;51.612;7.510;2023-04-06T06:23:12;6.70;1.00
1592;DHT22;789;51.612;7.510;2023-04-06T06:25:39;6.90;1.00
1592;DHT22;789;51.612;7.510;2023-04-06T06:28:06;7.10;1.00
1592;DHT22;789;51.612;7.510;2023-04-06T06:30:33;7.30;1.00
1592;DHT22;789;51.612;7.510;2023-04-06T06:33:01;7.60;1.00
1592;DHT22;789;51.612;7.510;2023-04-06T06:35:28;7.70;1.00
1592;DHT22;789;51.612;7.510;2023-04-06T06:37:57;7.80;1.00
1592;DHT22;789;51.612;7.510;2023-04-06T06:40:24;8.00;1.00
1592;DHT22;789;51.612;7.510;2023-04-06T06:42:52;8.10;1.00
1592;DHT22;789;51.612;7.510;2023-04-06T06:45:19;8.30;1.00
1592;DHT22;789;51.612;7.510;2023-04-06T06:47:46;8.50;1.00
1592;DHT22;789;51.612;7.510;2023-04-06T06:50:14;8.70;1.00
1592;DHT22;789;51.612;7.510;2023-04-06T06:52:41;8.90;1.00
1592;DHT22;789;51.612;7.510;2023-04-06T06:55:09;9.20;1.00
1592;DHT22;789;51.612;7.510;2023-04-06T06:57:37;9.50;1.00
1592;DHT22;789;51.612;7.510;2023-04-06T07:00:05;9.70;1.00
1592;DHT22;789;51.612;7.510;2023-04-06T07:02:34;9.90;1.00
1592;DHT22;789;51.612;7.510;2023-04-06T07:05:02;10.10;1.00
1592;DHT22;789;51.612;7.510;2023-04-06T07:07:31;10.40;1.00
1592;DHT22;789;51.612;7.510;2023-04-06T07:09:58;10.70;1.00
1592;DHT22;789;51.612;7.510;2023-04-06T07:12:24;11.00;1.00
1592;DHT22;789;51.612;7.510;2023-04-06T07:14:51;11.40;1.00
1592;DHT22;789;51.612;7.510;2023-04-06T07:17:18;11.70;1.00
1592;DHT22;789;51.612;7.510;2023-04-06T07:19:45;12.20;1.00
1592;DHT22;789;51.612;7.510;2023-04-06T07:22:11;12.60;1.00
1592;DHT22;789;51.612;7.510;2023-04-06T07:24:40;13.00;1.00
1592;DHT22;789;51.612;7.510;2023-04-06T07:27:06;13.50;1.00
1592;DHT22;789;51.612;7.510;2023-04-06T07:29:33;14.10;1.00
1592;DHT22;789;51.612;7.510;2023-04-06T07:32:00;14.70;1.00
1592;DHT22;789;51.612;7.510;2023-04-06T07:34:27;15.40;1.00
1592;DHT22;789;51.612;7.510;2023-04-06T07:36:54;15.90;1.00
1592;DHT22;789;51.612;7.510;2023-04-06T07:39:22;16.60;1.00
1592;DHT22;789;51.612;7.510;2023-04-06T07:41:50;17.00;1.00
1592;DHT22;789;51.612;7.510;2023-04-06T07:44:16;17.10;1.00
1592;DHT22;789;51.612;7.510;2023-04-06T07:46:43;17.30;1.00
1592;DHT22;789;51.612;7.510;2023-04-06T07:49:10;17.90;1.00
1592;DHT22;789;51.612;7.510;2023-04-06T07:51:37;18.20;1.00
1592;DHT22;789;51.612;7.510;2023-04-06T07:54:04;18.60;1.00
1592;DHT22;789;51.612;7.510;2023-04-06T07:56:31;18.90;1.00
1592;DHT22;789;51.612;7.510;2023-04-06T07:58:59;18.90;1.00
1592;DHT22;789;51.612;7.510;2023-04-06T08:01:28;18.50;1.00
1592;DHT22;789;51.612;7.510;2023-04-06T08:03:55;17.60;1.00
1592;DHT22;789;51.612;7.510;2023-04-06T08:06:22;17.20;1.00
1592;DHT22;789;51.612;7.510;2023-04-06T08:08:51;17.20;1.00
1592;DHT22;789;51.612;7.510;2023-04-06T08:11:18;17.30;1.00
1592;DHT22;789;51.612;7.510;2023-04-06T08:13:45;17.90;1.00
1592;DHT22;789;51.612;7.510;2023-04-06T08:16:13;18.70;1.00
1592;DHT22;789;51.612;7.510;2023-04-06T08:18:40;19.80;1.00
1592;DHT22;789;51.612;7.510;2023-04-06T08:21:07;20.80;1.00
1592;DHT22;789;51.612;7.510;2023-04-06T08:23:34;21.50;1.00
1592;DHT22;789;51.612;7.510;2023-04-06T08:26:00;22.70;1.00
1592;DHT22;789;51.612;7.510;2023-04-06T08:28:28;23.90;1.00
1592;DHT22;789;51.612;7.510;2023-04-06T08:30:55;24.80;1.00
1592;DHT22;789;51.612;7.510;2023-04-06T08:33:23;24.00;1.00
1592;DHT22;789;51.612;7.510;2023-04-06T08:35:49;23.30;1.00
1592;DHT22;789;51.612;7.510;2023-04-06T08:38:17;23.50;1.00
1592;DHT22;789;51.612;7.510;2023-04-06T08:40:45;23.40;1.00
1592;DHT22;789;51.612;7.510;2023-04-06T08:43:14;24.10;1.00
1592;DHT22;789;51.612;7.510;2023-04-06T08:45:43;24.70;1.00
1592;DHT22;789;51.612;7.510;2023-04-06T08:48:12;25.70;1.00
1592;DHT22;789;51.612;7.510;2023-04-06T08:50:40;26.50;1.00
1592;DHT22;789;51.612;7.510;2023-04-06T08:53:07;27.30;1.00
1592;DHT22;789;51.612;7.510;2023-04-06T08:55:35;27.50;1.00
1592;DHT22;789;51.612;7.510;2023-04-06T08:58:03;27.70;1.00
1592;DHT22;789;51.612;7.510;2023-04-06T09:00:30;27.80;1.00
1592;DHT22;789;51.612;7.510;2023-04-06T09:02:59;28.00;1.00
1592;DHT22;789;51.612;7.510;2023-04-06T09:05:26;28.20;1.00
1592;DHT22;789;51.612;7.510;2023-04-06T09:07:54;27.60;1.00
1592;DHT22;789;51.612;7.510;2023-04-06T09:10:21;27.30;1.00
1592;DHT22;789;51.612;7.510;2023-04-06T09:12:50;28.10;1.00
1592;DHT22;789;51.612;7.510;2023-04-06T09:15:18;28.00;1.00
1592;DHT22;789;51.612;7.510;2023-04-06T09:17:45;27.10;1.00
1592;DHT22;789;51.612;7.510;2023-04-06T09:20:12;26.40;1.00
1592;DHT22;789;51.612;7.510;2023-04-06T09:22:39;26.40;1.00
1592;DHT22;789;51.612;7.510;2023-04-06T09:25:08;25.90;1.00
1592;DHT22;789;51.612;7.510;2023-04-06T09:27:36;25.70;1.00
1592;DHT22;789;51.612;7.510;2023-04-06T09:30:08;25.70;1.00
1592;DHT22;789;51.612;7.510;2023-04-06T09:32:45;26.60;1.00
1592;DHT22;789;51.612;7.510;2023-04-06T09:35:13;25.80;1.00
1592;DHT22;789;51.612;7.510;2023-04-06T09:37:40;25.10;1.00
1592;DHT22;789;51.612;7.510;2023-04-06T09:40:09;24.40;1.00
1592;DHT22;789;51.612;7.510;2023-04-06T09:42:36;24.50;1.00
1592;DHT22;789;51.612;7.510;2023-04-06T09:45:04;24.60;1.00
1592;DHT22;789;51.612;7.510;2023-04-06T09:47:31;24.50;1.00
1592;DHT22;789;51.612;7.510;2023-04-06T09:50:00;23.90;1.00
1592;DHT22;789;51.612;7.510;2023-04-06T09:52:32;23.10;1.00
1592;DHT22;789;51.612;7.510;2023-04-06T09:55:01;22.40;1.00
1592;DHT22;789;51.612;7.510;2023-04-06T09:57:35;20.50;1.00
1592;DHT22;789;51.612;7.510;2023-04-06T10:00:05;19.70;1.00
1592;DHT22;789;51.612;7.510;2023-04-06T10:02:41;19.50;1.00
1592;DHT22;789;51.612;7.510;2023-04-06T10:05:15;19.80;1.00
1592;DHT22;789;51.612;7.510;2023-04-06T10:07:44;19.70;1.00
1592;DHT22;789;51.612;7.510;2023-04-06T10:10:11;19.70;1.00
1592;DHT22;789;51.612;7.510;2023-04-06T10:12:43;19.60;1.00
1592;DHT22;789;51.612;7.510;2023-04-06T10:15:10;20.00;1.00
1592;DHT22;789;51.612;7.510;2023-04-06T10:17:37;19.30;1.00
1592;DHT22;789;51.612;7.510;2023-04-06T10:20:08;19.00;1.00
1592;DHT22;789;51.612;7.510;2023-04-06T10:22:43;19.00;1.00
1592;DHT22;789;51.612;7.510;2023-04-06T10:25:26;18.80;1.00
1592;DHT22;789;51.612;7.510;2023-04-06T10:28:00;19.30;1.00
1592;DHT22;789;51.612;7.510;2023-04-06T10:30:28;19.80;1.00
1592;DHT22;789;51.612;7.510;2023-04-06T10:32:59;20.40;1.00
1592;DHT22;789;51.612;7.510;2023-04-06T10:35:37;20.90;1.00
1592;DHT22;789;51.612;7.510;2023-04-06T10:38:05;20.80;1.00
1592;DHT22;789;51.612;7.510;2023-04-06T10:40:35;21.20;1.00
1592;DHT22;789;51.612;7.510;2023-04-06T10:43:11;21.30;1.00
1592;DHT22;789;51.612;7.510;2023-04-06T10:45:39;21.40;1.00
1592;DHT22;789;51.612;7.510;2023-04-06T10:48:18;21.00;1.00
1592;DHT22;789;51.612;7.510;2023-04-06T10:50:47;21.10;1.00
1592;DHT22;789;51.612;7.510;2023-04-06T10:53:21;20.70;1.00
1592;DHT22;789;51.612;7.510;2023-04-06T10:55:49;20.70;1.00
1592;DHT22;789;51.612;7.510;2023-04-06T10:58:18;20.10;1.00
1592;DHT22;789;51.612;7.510;2023-04-06T11:00:46;19.80;1.00
1592;DHT22;789;51.612;7.510;2023-04-06T11:03:12;19.60;1.00
1592;DHT22;789;51.612;7.510;2023-04-06T11:05:43;19.00;1.00
1592;DHT22;789;51.612;7.510;2023-04-06T11:08:21;18.40;1.00
1592;DHT22;789;51.612;7.510;2023-04-06T11:10:48;18.40;1.00
1592;DHT22;789;51.612;7.510;2023-04-06T11:13:15;18.30;1.00
1592;DHT22;789;51.612;7.510;2023-04-06T11:15:44;17.80;1.00
1592;DHT22;789;51.612;7.510;2023-04-06T11:18:11;17.90;1.00
1592;DHT22;789;51.612;7.510;2023-04-06T11:20:37;18.20;1.00
1592;DHT22;789;51.612;7.510;2023-04-06T11:23:04;18.80;1.00
1592;DHT22;789;51.612;7.510;2023-04-06T11:25:31;19.60;1.00
1592;DHT22;789;51.612;7.510;2023-04-06T11:27:58;20.80;1.00
1592;DHT22;789;51.612;7.510;2023-04-06T11:30:25;22.10;1.00
1592;DHT22;789;51.612;7.510;2023-04-06T11:33:00;23.10;1.00
1592;DHT22;789;51.612;7.510;2023-04-06T11:35:31;23.50;1.00
1592;DHT22;789;51.612;7.510;2023-04-06T11:38:03;23.30;1.00
1592;DHT22;789;51.612;7.510;2023-04-06T11:40:29;22.00;1.00
1592;DHT22;789;51.612;7.510;2023-04-06T11:42:58;21.50;1.00
1592;DHT22;789;51.612;7.510;2023-04-06T11:45:25;21.30;1.00
1592;DHT22;789;51.612;7.510;2023-04-06T11:47:57;20.80;1.00
1592;DHT22;789;51.612;7.510;2023-04-06T11:50:24;20.30;1.00
1592;DHT22;789;51.612;7.510;2023-04-06T11:52:58;19.70;1.00
1592;DHT22;789;51.612;7.510;2023-04-06T11:55:25;19.50;1.00
1592;DHT22;789;51.612;7.510;2023-04-06T11:57:52;19.20;1.00
1592;DHT22;789;51.612;7.510;2023-04-06T12:00:21;19.10;1.00
1592;DHT22;789;51.612;7.510;2023-04-06T12:02:48;18.90;1.00
1592;DHT22;789;51.612;7.510;2023-04-06T12:05:17;19.10;1.00
1592;DHT22;789;51.612;7.510;2023-04-06T12:07:44;19.10;1.00
1592;DHT22;789;51.612;7.510;2023-04-06T12:10:11;18.70;1.00
1592;DHT22;789;51.612;7.510;2023-04-06T12:12:38;18.20;1.00
1592;DHT22;789;51.612;7.510;2023-04-06T12:15:06;17.60;1.00
1592;DHT22;789;51.612;7.510;2023-04-06T12:17:33;17.10;1.00
1592;DHT22;789;51.612;7.510;2023-04-06T12:20:00;16.80;1.00
1592;DHT22;789;51.612;7.510;2023-04-06T12:22:28;16.90;1.00
1592;DHT22;789;51.612;7.510;2023-04-06T12:24:55;17.00;1.00
1592;DHT22;789;51.612;7.510;2023-04-06T12:27:22;17.20;1.00
1592;DHT22;789;51.612;7.510;2023-04-06T12:29:49;17.30;1.00
1592;DHT22;789;51.612;7.510;2023-04-06T12:32:16;17.40;1.00
1592;DHT22;789;51.612;7.510;2023-04-06T12:34:43;17.20;1.00
1592;DHT22;789;51.612;7.510;2023-04-06T12:37:10;17.20;1.00
1592;DHT22;789;51.612;7.510;2023-04-06T12:39:39;17.10;1.00
1592;DHT22;789;51.612;7.510;2023-04-06T12:42:10;17.10;1.00
1592;DHT22;789;51.612;7.510;2023-04-06T12:44:38;16.80;1.00
1592;DHT22;789;51.612;7.510;2023-04-06T12:47:05;16.40;1.00
1592;DHT22;789;51.612;7.510;2023-04-06T12:49:33;16.30;1.00
1592;DHT22;789;51.612;7.510;2023-04-06T12:51:59;15.90;1.00
1592;DHT22;789;51.612;7.510;2023-04-06T12:54:27;15.90;1.00
1592;DHT22;789;51.612;7.510;2023-04-06T12:56:55;15.90;1.00
1592;DHT22;789;51.612;7.510;2023-04-06T12:59:22;15.80;1.00
1592;DHT22;789;51.612;7.510;2023-04-06T13:01:50;15.70;1.00
1592;DHT22;789;51.612;7.510;2023-04-06T13:04:17;15.80;1.00
1592;DHT22;789;51.612;7.510;2023-04-06T13:06:44;16.00;1.00
1592;DHT22;789;51.612;7.510;2023-04-06T13:09:11;16.40;1.00
1592;DHT22;789;51.612;7.510;2023-04-06T13:11:38;16.80;1.00
1592;DHT22;789;51.612;7.510;2023-04-06T13:14:08;17.20;1.00
1592;DHT22;789;51.612;7.510;2023-04-06T13:16:35;17.40;1.00
1592;DHT22;789;51.612;7.510;2023-04-06T13:19:01;17.60;1.00
1592;DHT22;789;51.612;7.510;2023-04-06T13:21:28;17.80;1.00
1592;DHT22;789;51.612;7.510;2023-04-06T13:23:55;17.50;1.00
1592;DHT22;789;51.612;7.510;2023-04-06T13:26:22;17.20;1.00
1592;DHT22;789;51.612;7.510;2023-04-06T13:28:49;17.10;1.00
1592;DHT22;789;51.612;7.510;2023-04-06T13:31:17;17.10;1.00
1592;DHT22;789;51.612;7.510;2023-04-06T13:33:44;17.20;1.00
1592;DHT22;789;51.612;7.510;2023-04-06T13:36:11;17.30;1.00
1592;DHT22;789;51.612;7.510;2023-04-06T13:38:38;17.40;1.00
1592;DHT22;789;51.612;7.510;2023-04-06T13:41:05;17.50;1.00
1592;DHT22;789;51.612;7.510;2023-04-06T13:43:32;17.50;1.00
1592;DHT22;789;51.612;7.510;2023-04-06T13:46:01;17.40;1.00
1592;DHT22;789;51.612;7.510;2023-04-06T13:48:29;17.50;1.00
1592;DHT22;789;51.612;7.510;2023-04-06T13:50:55;17.40;1.00
1592;DHT22;789;51.612;7.510;2023-04-06T13:53:22;17.20;1.00
1592;DHT22;789;51.612;7.510;2023-04-06T13:55:53;16.90;1.00
1592;DHT22;789;51.612;7.510;2023-04-06T13:58:20;16.90;1.00
1592;DHT22;789;51.612;7.510;2023-04-06T14:00:47;17.00;1.00
1592;DHT22;789;51.612;7.510;2023-04-06T14:03:14;17.10;1.00
1592;DHT22;789;51.612;7.510;2023-04-06T14:05:42;17.10;1.00
1592;DHT22;789;51.612;7.510;2023-04-06T14:08:09;17.10;1.00
1592;DHT22;789;51.612;7.510;2023-04-06T14:10:37;16.90;1.00
1592;DHT22;789;51.612;7.510;2023-04-06T14:13:04;16.80;1.00
1592;DHT22;789;51.612;7.510;2023-04-06T14:15:31;16.70;1.00
1592;DHT22;789;51.612;7.510;2023-04-06T14:17:58;16.60;1.00
1592;DHT22;789;51.612;7.510;2023-04-06T14:20:27;16.20;1.00
1592;DHT22;789;51.612;7.510;2023-04-06T14:22:55;16.10;1.00
1592;DHT22;789;51.612;7.510;2023-04-06T14:25:22;16.10;1.00
1592;DHT22;789;51.612;7.510;2023-04-06T14:27:48;16.20;1.00
1592;DHT22;789;51.612;7.510;2023-04-06T14:30:15;16.20;1.00
1592;DHT22;789;51.612;7.510;2023-04-06T14:32:42;16.10;1.00
1592;DHT22;789;51.612;7.510;2023-04-06T14:35:10;16.20;1.00
1592;DHT22;789;51.612;7.510;2023-04-06T14:37:36;16.00;1.00
1592;DHT22;789;51.612;7.510;2023-04-06T14:40:06;15.80;1.00
1592;DHT22;789;51.612;7.510;2023-04-06T14:42:33;15.80;1.00
1592;DHT22;789;51.612;7.510;2023-04-06T14:45:00;15.70;1.00
1592;DHT22;789;51.612;7.510;2023-04-06T14:47:26;15.40;1.00
1592;DHT22;789;51.612;7.510;2023-04-06T14:49:53;15.10;1.00
1592;DHT22;789;51.612;7.510;2023-04-06T14:52:20;15.00;1.00
1592;DHT22;789;51.612;7.510;2023-04-06T14:54:47;15.00;1.00
1592;DHT22;789;51.612;7.510;2023-04-06T14:57:15;14.90;1.00
1592;DHT22;789;51.612;7.510;2023-04-06T14:59:42;14.80;1.00
1592;DHT22;789;51.612;7.510;2023-04-06T15:02:08;14.70;1.00
1592;DHT22;789;51.612;7.510;2023-04-06T15:04:35;14.70;1.00
1592;DHT22;789;51.612;7.510;2023-04-06T15:07:02;14.80;1.00
1592;DHT22;789;51.612;7.510;2023-04-06T15:09:29;14.70;1.00
1592;DHT22;789;51.612;7.510;2023-04-06T15:11:55;14.80;1.00
1592;DHT22;789;51.612;7.510;2023-04-06T15:14:24;14.70;1.00
1592;DHT22;789;51.612;7.510;2023-04-06T15:16:50;14.30;1.00
1592;DHT22;789;51.612;7.510;2023-04-06T15:19:17;14.20;1.00
1592;DHT22;789;51.612;7.510;2023-04-06T15:21:44;14.10;1.00
1592;DHT22;789;51.612;7.510;2023-04-06T15:24:11;14.00;1.00
1592;DHT22;789;51.612;7.510;2023-04-06T15:26:37;14.00;1.00
1592;DHT22;789;51.612;7.510;2023-04-06T15:29:04;14.00;1.00
1592;DHT22;789;51.612;7.510;2023-04-06T15:31:33;14.00;1.00
1592;DHT22;789;51.612;7.510;2023-04-06T15:34:00;14.10;1.00
1592;DHT22;789;51.612;7.510;2023-04-06T15:36:28;14.30;1.00
1592;DHT22;789;51.612;7.510;2023-04-06T15:38:56;14.20;1.00
1592;DHT22;789;51.612;7.510;2023-04-06T15:41:23;14.10;1.00
1592;DHT22;789;51.612;7.510;2023-04-06T15:43:51;14.00;1.00
1592;DHT22;789;51.612;7.510;2023-04-06T15:46:18;14.00;1.00
1592;DHT22;789;51.612;7.510;2023-04-06T15:48:47;14.10;1.00
1592;DHT22;789;51.612;7.510;2023-04-06T15:51:14;14.00;1.00
1592;DHT22;789;51.612;7.510;2023-04-06T15:53:41;14.10;1.00
1592;DHT22;789;51.612;7.510;2023-04-06T15:56:09;14.10;1.00
1592;DHT22;789;51.612;7.510;2023-04-06T15:58:35;14.00;1.00
1592;DHT22;789;51.612;7.510;2023-04-06T16:01:11;14.00;1.00
1592;DHT22;789;51.612;7.510;2023-04-06T16:03:38;14.00;1.00
1592;DHT22;789;51.612;7.510;2023-04-06T16:06:07;14.00;1.00
1592;DHT22;789;51.612;7.510;2023-04-06T16:08:34;13.90;1.00
1592;DHT22;789;51.612;7.510;2023-04-06T16:11:01;14.00;1.00
1592;DHT22;789;51.612;7.510;2023-04-06T16:13:28;14.10;1.00
1592;DHT22;789;51.612;7.510;2023-04-06T16:15:55;14.10;1.00
1592;DHT22;789;51.612;7.510;2023-04-06T16:18:22;14.00;1.00
1592;DHT22;789;51.612;7.510;2023-04-06T16:20:48;14.00;1.00
1592;DHT22;789;51.612;7.510;2023-04-06T16:23:17;14.00;1.00
1592;DHT22;789;51.612;7.510;2023-04-06T16:25:43;13.90;1.00
1592;DHT22;789;51.612;7.510;2023-04-06T16:28:10;13.70;1.00
1592;DHT22;789;51.612;7.510;2023-04-06T16:30:37;13.60;1.00
1592;DHT22;789;51.612;7.510;2023-04-06T16:33:05;13.30;1.00
1592;DHT22;789;51.612;7.510;2023-04-06T16:35:31;12.80;1.00
1592;DHT22;789;51.612;7.510;2023-04-06T16:37:59;12.20;1.00
1592;DHT22;789;51.612;7.510;2023-04-06T16:40:27;11.90;1.00
1592;DHT22;789;51.612;7.510;2023-04-06T16:42:54;11.80;1.00
1592;DHT22;789;51.612;7.510;2023-04-06T16:45:21;11.50;1.00